EGKB

London Biggin Hill Airport

London, United Kingdom
METAR EGKB 230750Z 09009KT CAVOK M00/M04 Q1021
Observed Flight Rules
Feb-23 @ 07:50 UTC (38 minutes ago) Visual Flight Rules
Wind Visibility Clouds
90° at 9 knots 10,000+ meters
  • Clear skies
Temperatures Readings
Current 0°C / 32°F
Dewpoint -4°C / 25°F
Humidity 75%
Altimeter 30.15" Hg
Pressure 1021 hPa
Elevation 183
METAR EGKB 230750Z 09009KT CAVOK M00/M04 Q1021
Observed Flight Rules
Feb-23 @ 07:50 UTC
(38 minutes ago)
VFR
Wind Visibility
90° at 9 knots 10,000+ meters
Clouds
  • Clear skies
Temperature Dewpoint
0°C / 32°F -4°C / 25°F
Humidity Altimeter Pressure
75% 30.15" Hg 1021 hPa